Terminal Aerodrome Forecast
Issued by NWS

Current Version | Previous Version | Graphics & Text | Print | Product List | Glossary On
Versions: 1 2 3 4 5 6 7 8 9 10 11 12 13 14 15 16 17
000
FTUS41 KRNK 161725
TAFLWB
TAF
KLWB 161725Z 1618/1718 29013G26KT P6SM BKN040
     FM170200 30006KT P6SM SCT040
     FM170800 VRB03KT P6SM SCT020 BKN040
     FM171100 VRB03KT P6SM SCT040
     FM171300 VRB03KT P6SM SCT250=

USA.gov is the U.S. government's official web portal to all federal, state and local government web resources and services.